sensor_id;sensor_type;location;lat;lon;timestamp;temperature;humidity
22167;DHT22;11249;52.468;13.776;2023-07-09T00:01:18;18.20;99.90
22167;DHT22;11249;52.468;13.776;2023-07-09T00:03:46;18.20;99.90
22167;DHT22;11249;52.468;13.776;2023-07-09T00:06:18;18.10;99.90
22167;DHT22;11249;52.468;13.776;2023-07-09T00:08:48;18.00;99.90
22167;DHT22;11249;52.468;13.776;2023-07-09T00:11:16;18.00;99.90
22167;DHT22;11249;52.468;13.776;2023-07-09T00:13:43;18.00;99.90
22167;DHT22;11249;52.468;13.776;2023-07-09T00:16:35;17.90;99.90
22167;DHT22;11249;52.468;13.776;2023-07-09T00:19:05;17.90;99.90
22167;DHT22;11249;52.468;13.776;2023-07-09T00:21:32;17.80;99.90
22167;DHT22;11249;52.468;13.776;2023-07-09T00:24:01;17.70;99.90
22167;DHT22;11249;52.468;13.776;2023-07-09T00:26:31;17.70;99.90
22167;DHT22;11249;52.468;13.776;2023-07-09T00:29:04;17.60;99.90
22167;DHT22;11249;52.468;13.776;2023-07-09T00:31:31;17.60;99.90
22167;DHT22;11249;52.468;13.776;2023-07-09T00:33:57;17.60;99.90
22167;DHT22;11249;52.468;13.776;2023-07-09T00:36:29;17.60;99.90
22167;DHT22;11249;52.468;13.776;2023-07-09T00:38:57;17.50;99.90
22167;DHT22;11249;52.468;13.776;2023-07-09T00:41:36;17.50;99.90
22167;DHT22;11249;52.468;13.776;2023-07-09T00:44:29;17.50;99.90
22167;DHT22;11249;52.468;13.776;2023-07-09T00:49:32;17.40;99.90
22167;DHT22;11249;52.468;13.776;2023-07-09T00:52:03;17.40;99.90
22167;DHT22;11249;52.468;13.776;2023-07-09T00:54:35;17.30;99.90
22167;DHT22;11249;52.468;13.776;2023-07-09T00:57:14;17.30;99.90
22167;DHT22;11249;52.468;13.776;2023-07-09T00:59:53;17.20;99.90
22167;DHT22;11249;52.468;13.776;2023-07-09T01:02:21;17.20;99.90
22167;DHT22;11249;52.468;13.776;2023-07-09T01:04:57;17.20;99.90
22167;DHT22;11249;52.468;13.776;2023-07-09T01:07:30;17.10;99.90
22167;DHT22;11249;52.468;13.776;2023-07-09T01:09:57;17.10;99.90
22167;DHT22;11249;52.468;13.776;2023-07-09T01:12:24;17.10;99.90
22167;DHT22;11249;52.468;13.776;2023-07-09T01:14:54;17.00;99.90
22167;DHT22;11249;52.468;13.776;2023-07-09T01:17:27;17.00;99.90
22167;DHT22;11249;52.468;13.776;2023-07-09T01:19:56;16.90;99.90
22167;DHT22;11249;52.468;13.776;2023-07-09T01:22:23;16.90;99.90
22167;DHT22;11249;52.468;13.776;2023-07-09T01:25:05;16.90;99.90
22167;DHT22;11249;52.468;13.776;2023-07-09T01:27:45;16.90;99.90
22167;DHT22;11249;52.468;13.776;2023-07-09T01:30:24;16.90;99.90
22167;DHT22;11249;52.468;13.776;2023-07-09T01:32:55;16.90;99.90
22167;DHT22;11249;52.468;13.776;2023-07-09T01:35:22;16.80;99.90
22167;DHT22;11249;52.468;13.776;2023-07-09T01:37:49;16.80;99.90
22167;DHT22;11249;52.468;13.776;2023-07-09T01:40:18;16.80;99.90
22167;DHT22;11249;52.468;13.776;2023-07-09T01:42:58;16.80;99.90
22167;DHT22;11249;52.468;13.776;2023-07-09T01:45:26;16.70;99.90
22167;DHT22;11249;52.468;13.776;2023-07-09T01:47:54;16.70;99.90
22167;DHT22;11249;52.468;13.776;2023-07-09T01:50:22;16.70;99.90
22167;DHT22;11249;52.468;13.776;2023-07-09T01:52:51;16.60;99.90
22167;DHT22;11249;52.468;13.776;2023-07-09T01:55:20;16.60;99.90
22167;DHT22;11249;52.468;13.776;2023-07-09T01:57:46;16.60;99.90
22167;DHT22;11249;52.468;13.776;2023-07-09T02:00:16;16.60;99.90
22167;DHT22;11249;52.468;13.776;2023-07-09T02:02:45;16.50;99.90
22167;DHT22;11249;52.468;13.776;2023-07-09T02:05:17;16.50;99.90
22167;DHT22;11249;52.468;13.776;2023-07-09T02:07:45;16.40;99.90
22167;DHT22;11249;52.468;13.776;2023-07-09T02:10:13;16.40;99.90
22167;DHT22;11249;52.468;13.776;2023-07-09T02:12:40;16.40;99.90
22167;DHT22;11249;52.468;13.776;2023-07-09T02:15:08;16.30;99.90
22167;DHT22;11249;52.468;13.776;2023-07-09T02:17:34;16.30;99.90
22167;DHT22;11249;52.468;13.776;2023-07-09T02:20:02;16.30;99.90
22167;DHT22;11249;52.468;13.776;2023-07-09T02:22:30;16.20;99.90
22167;DHT22;11249;52.468;13.776;2023-07-09T02:24:57;16.20;99.90
22167;DHT22;11249;52.468;13.776;2023-07-09T02:27:24;16.20;99.90
22167;DHT22;11249;52.468;13.776;2023-07-09T02:29:51;16.20;99.90
22167;DHT22;11249;52.468;13.776;2023-07-09T02:32:21;16.10;99.90
22167;DHT22;11249;52.468;13.776;2023-07-09T02:34:48;16.10;99.90
22167;DHT22;11249;52.468;13.776;2023-07-09T02:37:23;16.10;99.90
22167;DHT22;11249;52.468;13.776;2023-07-09T02:39:51;16.00;99.90
22167;DHT22;11249;52.468;13.776;2023-07-09T02:42:20;16.00;99.90
22167;DHT22;11249;52.468;13.776;2023-07-09T02:44:47;15.90;99.90
22167;DHT22;11249;52.468;13.776;2023-07-09T02:47:14;15.90;99.90
22167;DHT22;11249;52.468;13.776;2023-07-09T02:49:41;15.90;99.90
22167;DHT22;11249;52.468;13.776;2023-07-09T02:52:08;15.90;99.90
22167;DHT22;11249;52.468;13.776;2023-07-09T02:54:35;15.90;99.90
22167;DHT22;11249;52.468;13.776;2023-07-09T02:57:02;15.90;99.90
22167;DHT22;11249;52.468;13.776;2023-07-09T02:59:29;15.80;99.90
22167;DHT22;11249;52.468;13.776;2023-07-09T03:01:56;15.80;99.90
22167;DHT22;11249;52.468;13.776;2023-07-09T03:04:23;15.80;99.90
22167;DHT22;11249;52.468;13.776;2023-07-09T03:06:51;15.80;99.90
22167;DHT22;11249;52.468;13.776;2023-07-09T03:09:18;15.70;99.90
22167;DHT22;11249;52.468;13.776;2023-07-09T03:11:45;15.70;99.90
22167;DHT22;11249;52.468;13.776;2023-07-09T03:14:13;15.70;99.90
22167;DHT22;11249;52.468;13.776;2023-07-09T03:16:40;15.70;99.90
22167;DHT22;11249;52.468;13.776;2023-07-09T03:19:06;15.70;99.90
22167;DHT22;11249;52.468;13.776;2023-07-09T03:21:34;15.70;99.90
22167;DHT22;11249;52.468;13.776;2023-07-09T03:24:02;15.70;99.90
22167;DHT22;11249;52.468;13.776;2023-07-09T03:26:29;15.70;99.90
22167;DHT22;11249;52.468;13.776;2023-07-09T03:28:55;15.70;99.90
22167;DHT22;11249;52.468;13.776;2023-07-09T03:31:23;15.70;99.90
22167;DHT22;11249;52.468;13.776;2023-07-09T03:33:51;15.70;99.90
22167;DHT22;11249;52.468;13.776;2023-07-09T03:36:18;15.70;99.90
22167;DHT22;11249;52.468;13.776;2023-07-09T03:38:48;15.70;99.90
22167;DHT22;11249;52.468;13.776;2023-07-09T03:41:15;15.80;99.90
22167;DHT22;11249;52.468;13.776;2023-07-09T03:43:42;15.80;99.90
22167;DHT22;11249;52.468;13.776;2023-07-09T03:46:09;15.80;99.90
22167;DHT22;11249;52.468;13.776;2023-07-09T03:48:36;15.90;99.90
22167;DHT22;11249;52.468;13.776;2023-07-09T03:51:03;15.90;99.90
22167;DHT22;11249;52.468;13.776;2023-07-09T03:53:29;15.90;99.90
22167;DHT22;11249;52.468;13.776;2023-07-09T03:55:56;15.90;99.90
22167;DHT22;11249;52.468;13.776;2023-07-09T03:58:25;15.90;99.90
22167;DHT22;11249;52.468;13.776;2023-07-09T04:00:52;16.00;99.90
22167;DHT22;11249;52.468;13.776;2023-07-09T04:03:21;16.00;99.90
22167;DHT22;11249;52.468;13.776;2023-07-09T04:05:48;16.00;99.90
22167;DHT22;11249;52.468;13.776;2023-07-09T04:08:15;16.10;99.90
22167;DHT22;11249;52.468;13.776;2023-07-09T04:10:42;16.10;99.90
22167;DHT22;11249;52.468;13.776;2023-07-09T04:13:09;16.10;99.90
22167;DHT22;11249;52.468;13.776;2023-07-09T04:15:36;16.20;99.90
22167;DHT22;11249;52.468;13.776;2023-07-09T04:18:02;16.20;99.90
22167;DHT22;11249;52.468;13.776;2023-07-09T04:20:30;16.20;99.90
22167;DHT22;11249;52.468;13.776;2023-07-09T04:22:57;16.20;99.90
22167;DHT22;11249;52.468;13.776;2023-07-09T04:25:23;16.30;99.90
22167;DHT22;11249;52.468;13.776;2023-07-09T04:27:50;16.30;99.90
22167;DHT22;11249;52.468;13.776;2023-07-09T04:30:17;16.40;99.90
22167;DHT22;11249;52.468;13.776;2023-07-09T04:32:44;16.40;99.90
22167;DHT22;11249;52.468;13.776;2023-07-09T04:35:12;16.50;99.90
22167;DHT22;11249;52.468;13.776;2023-07-09T04:37:40;16.50;99.90
22167;DHT22;11249;52.468;13.776;2023-07-09T04:40:08;16.60;99.90
22167;DHT22;11249;52.468;13.776;2023-07-09T04:42:37;16.60;99.90
22167;DHT22;11249;52.468;13.776;2023-07-09T04:45:05;16.70;99.90
22167;DHT22;11249;52.468;13.776;2023-07-09T04:47:32;16.80;99.90
22167;DHT22;11249;52.468;13.776;2023-07-09T04:49:59;16.80;99.90
22167;DHT22;11249;52.468;13.776;2023-07-09T04:52:26;16.90;99.90
22167;DHT22;11249;52.468;13.776;2023-07-09T04:54:52;17.00;99.90
22167;DHT22;11249;52.468;13.776;2023-07-09T04:57:19;17.10;99.90
22167;DHT22;11249;52.468;13.776;2023-07-09T04:59:46;17.10;99.90
22167;DHT22;11249;52.468;13.776;2023-07-09T05:02:12;17.20;99.90
22167;DHT22;11249;52.468;13.776;2023-07-09T05:04:39;17.30;99.90
22167;DHT22;11249;52.468;13.776;2023-07-09T05:07:06;17.40;99.90
22167;DHT22;11249;52.468;13.776;2023-07-09T05:09:33;17.50;99.90
22167;DHT22;11249;52.468;13.776;2023-07-09T05:12:00;17.60;99.90
22167;DHT22;11249;52.468;13.776;2023-07-09T05:14:27;17.70;99.90
22167;DHT22;11249;52.468;13.776;2023-07-09T05:16:54;17.80;99.90
22167;DHT22;11249;52.468;13.776;2023-07-09T05:19:21;17.90;99.90
22167;DHT22;11249;52.468;13.776;2023-07-09T05:21:48;18.00;99.90
22167;DHT22;11249;52.468;13.776;2023-07-09T05:24:14;18.10;99.90
22167;DHT22;11249;52.468;13.776;2023-07-09T05:26:41;18.20;99.90
22167;DHT22;11249;52.468;13.776;2023-07-09T05:29:08;18.40;99.90
22167;DHT22;11249;52.468;13.776;2023-07-09T05:31:34;18.50;99.90
22167;DHT22;11249;52.468;13.776;2023-07-09T05:34:02;18.70;99.90
22167;DHT22;11249;52.468;13.776;2023-07-09T05:36:29;18.70;99.90
22167;DHT22;11249;52.468;13.776;2023-07-09T05:38:56;18.80;99.90
22167;DHT22;11249;52.468;13.776;2023-07-09T05:41:23;19.00;99.90
22167;DHT22;11249;52.468;13.776;2023-07-09T05:43:51;19.10;99.90
22167;DHT22;11249;52.468;13.776;2023-07-09T05:46:21;19.20;99.90
22167;DHT22;11249;52.468;13.776;2023-07-09T05:48:48;19.30;99.90
22167;DHT22;11249;52.468;13.776;2023-07-09T05:51:15;19.40;99.90
22167;DHT22;11249;52.468;13.776;2023-07-09T05:53:42;19.60;99.90
22167;DHT22;11249;52.468;13.776;2023-07-09T05:56:09;19.60;99.90
22167;DHT22;11249;52.468;13.776;2023-07-09T05:58:36;19.80;99.90
22167;DHT22;11249;52.468;13.776;2023-07-09T06:01:03;19.90;99.90
22167;DHT22;11249;52.468;13.776;2023-07-09T06:03:30;19.90;99.90
22167;DHT22;11249;52.468;13.776;2023-07-09T06:05:57;20.00;99.90
22167;DHT22;11249;52.468;13.776;2023-07-09T06:08:24;20.20;99.90
22167;DHT22;11249;52.468;13.776;2023-07-09T06:10:57;20.30;99.90
22167;DHT22;11249;52.468;13.776;2023-07-09T06:13:24;20.30;99.90
22167;DHT22;11249;52.468;13.776;2023-07-09T06:15:52;20.40;99.90
22167;DHT22;11249;52.468;13.776;2023-07-09T06:18:21;20.50;99.90
22167;DHT22;11249;52.468;13.776;2023-07-09T06:20:49;20.60;99.90
22167;DHT22;11249;52.468;13.776;2023-07-09T06:23:17;20.60;99.90
22167;DHT22;11249;52.468;13.776;2023-07-09T06:25:45;20.70;99.90
22167;DHT22;11249;52.468;13.776;2023-07-09T06:28:17;20.80;99.90
22167;DHT22;11249;52.468;13.776;2023-07-09T06:30:47;20.90;99.90
22167;DHT22;11249;52.468;13.776;2023-07-09T06:33:15;20.90;99.90
22167;DHT22;11249;52.468;13.776;2023-07-09T06:35:55;21.00;99.90
22167;DHT22;11249;52.468;13.776;2023-07-09T06:38:22;21.30;99.90
22167;DHT22;11249;52.468;13.776;2023-07-09T06:40:48;21.30;99.90
22167;DHT22;11249;52.468;13.776;2023-07-09T06:43:16;21.40;99.90
22167;DHT22;11249;52.468;13.776;2023-07-09T06:46:03;21.50;99.90
22167;DHT22;11249;52.468;13.776;2023-07-09T06:48:30;21.60;99.90
22167;DHT22;11249;52.468;13.776;2023-07-09T06:50:57;21.70;99.90
22167;DHT22;11249;52.468;13.776;2023-07-09T06:53:25;21.80;99.90
22167;DHT22;11249;52.468;13.776;2023-07-09T06:55:53;22.10;99.90
22167;DHT22;11249;52.468;13.776;2023-07-09T06:58:23;22.20;99.90
22167;DHT22;11249;52.468;13.776;2023-07-09T07:00:52;22.40;99.90
22167;DHT22;11249;52.468;13.776;2023-07-09T07:03:18;22.40;99.90
22167;DHT22;11249;52.468;13.776;2023-07-09T07:05:47;22.60;99.90
22167;DHT22;11249;52.468;13.776;2023-07-09T07:08:17;22.70;99.90
22167;DHT22;11249;52.468;13.776;2023-07-09T07:10:45;22.80;99.90
22167;DHT22;11249;52.468;13.776;2023-07-09T07:13:13;23.00;99.90
22167;DHT22;11249;52.468;13.776;2023-07-09T07:15:41;23.10;99.90
22167;DHT22;11249;52.468;13.776;2023-07-09T07:18:08;23.20;99.90
22167;DHT22;11249;52.468;13.776;2023-07-09T07:20:34;23.20;99.90
22167;DHT22;11249;52.468;13.776;2023-07-09T07:23:01;23.30;99.90
22167;DHT22;11249;52.468;13.776;2023-07-09T07:25:28;23.40;99.90
22167;DHT22;11249;52.468;13.776;2023-07-09T07:27:57;23.50;99.90
22167;DHT22;11249;52.468;13.776;2023-07-09T07:30:23;23.60;99.90
22167;DHT22;11249;52.468;13.776;2023-07-09T07:32:51;23.70;99.90
22167;DHT22;11249;52.468;13.776;2023-07-09T07:35:19;23.80;99.90
22167;DHT22;11249;52.468;13.776;2023-07-09T07:37:46;23.90;99.90
22167;DHT22;11249;52.468;13.776;2023-07-09T07:40:13;24.00;99.90
22167;DHT22;11249;52.468;13.776;2023-07-09T07:42:40;24.10;99.90
22167;DHT22;11249;52.468;13.776;2023-07-09T07:45:07;24.10;99.90
22167;DHT22;11249;52.468;13.776;2023-07-09T07:47:37;24.10;99.90
22167;DHT22;11249;52.468;13.776;2023-07-09T07:50:06;24.30;99.90
22167;DHT22;11249;52.468;13.776;2023-07-09T07:52:33;24.40;99.90
22167;DHT22;11249;52.468;13.776;2023-07-09T07:55:08;24.40;99.90
22167;DHT22;11249;52.468;13.776;2023-07-09T07:57:38;24.50;99.90
22167;DHT22;11249;52.468;13.776;2023-07-09T08:00:06;24.60;99.90
22167;DHT22;11249;52.468;13.776;2023-07-09T08:02:32;24.70;99.90
22167;DHT22;11249;52.468;13.776;2023-07-09T08:04:59;24.80;99.90
22167;DHT22;11249;52.468;13.776;2023-07-09T08:07:26;24.90;99.90
22167;DHT22;11249;52.468;13.776;2023-07-09T08:09:53;24.90;99.90
22167;DHT22;11249;52.468;13.776;2023-07-09T08:12:20;24.90;99.90
22167;DHT22;11249;52.468;13.776;2023-07-09T08:14:47;25.00;99.90
22167;DHT22;11249;52.468;13.776;2023-07-09T08:17:13;25.10;99.90
22167;DHT22;11249;52.468;13.776;2023-07-09T08:19:45;25.10;99.90
22167;DHT22;11249;52.468;13.776;2023-07-09T08:22:13;25.20;99.90
22167;DHT22;11249;52.468;13.776;2023-07-09T08:24:40;25.30;99.90
22167;DHT22;11249;52.468;13.776;2023-07-09T08:27:08;25.40;99.90
22167;DHT22;11249;52.468;13.776;2023-07-09T08:29:35;25.50;99.90
22167;DHT22;11249;52.468;13.776;2023-07-09T08:32:03;25.50;99.90
22167;DHT22;11249;52.468;13.776;2023-07-09T08:34:30;25.60;99.90
22167;DHT22;11249;52.468;13.776;2023-07-09T08:36:56;25.80;99.90
22167;DHT22;11249;52.468;13.776;2023-07-09T08:39:23;25.90;99.90
22167;DHT22;11249;52.468;13.776;2023-07-09T08:41:57;26.00;99.90
22167;DHT22;11249;52.468;13.776;2023-07-09T08:45:03;26.00;99.90
22167;DHT22;11249;52.468;13.776;2023-07-09T08:47:58;26.10;99.90
22167;DHT22;11249;52.468;13.776;2023-07-09T08:50:40;26.20;99.90
22167;DHT22;11249;52.468;13.776;2023-07-09T08:53:16;26.40;99.90
22167;DHT22;11249;52.468;13.776;2023-07-09T08:55:47;26.40;99.90
22167;DHT22;11249;52.468;13.776;2023-07-09T08:58:23;26.50;99.90
22167;DHT22;11249;52.468;13.776;2023-07-09T09:00:57;26.60;99.90
22167;DHT22;11249;52.468;13.776;2023-07-09T09:03:43;26.60;99.90
22167;DHT22;11249;52.468;13.776;2023-07-09T09:06:12;26.60;99.90
22167;DHT22;11249;52.468;13.776;2023-07-09T09:12:03;26.70;99.90
22167;DHT22;11249;52.468;13.776;2023-07-09T09:14:38;26.70;99.90
22167;DHT22;11249;52.468;13.776;2023-07-09T09:17:13;26.80;99.90
22167;DHT22;11249;52.468;13.776;2023-07-09T09:20:05;26.90;99.90
22167;DHT22;11249;52.468;13.776;2023-07-09T09:22:42;27.00;99.90
22167;DHT22;11249;52.468;13.776;2023-07-09T09:25:23;27.00;99.90
22167;DHT22;11249;52.468;13.776;2023-07-09T09:27:50;27.10;99.90
22167;DHT22;11249;52.468;13.776;2023-07-09T09:30:22;27.20;99.90
22167;DHT22;11249;52.468;13.776;2023-07-09T09:32:55;27.20;99.90
22167;DHT22;11249;52.468;13.776;2023-07-09T09:35:28;27.30;99.90
22167;DHT22;11249;52.468;13.776;2023-07-09T09:37:57;27.40;99.90
22167;DHT22;11249;52.468;13.776;2023-07-09T09:40:27;27.40;99.90
22167;DHT22;11249;52.468;13.776;2023-07-09T09:42:55;27.50;99.90
22167;DHT22;11249;52.468;13.776;2023-07-09T09:45:27;27.50;99.90
22167;DHT22;11249;52.468;13.776;2023-07-09T09:47:59;27.70;99.90
22167;DHT22;11249;52.468;13.776;2023-07-09T09:50:31;27.80;99.90
22167;DHT22;11249;52.468;13.776;2023-07-09T09:52:59;27.70;99.90
22167;DHT22;11249;52.468;13.776;2023-07-09T09:55:30;27.80;99.90
22167;DHT22;11249;52.468;13.776;2023-07-09T09:57:59;27.80;99.90
22167;DHT22;11249;52.468;13.776;2023-07-09T10:00:28;27.90;99.90
22167;DHT22;11249;52.468;13.776;2023-07-09T10:02:59;28.00;99.90
22167;DHT22;11249;52.468;13.776;2023-07-09T10:05:37;28.10;99.90
22167;DHT22;11249;52.468;13.776;2023-07-09T10:08:27;28.20;99.90
22167;DHT22;11249;52.468;13.776;2023-07-09T10:11:11;28.30;99.90
22167;DHT22;11249;52.468;13.776;2023-07-09T10:13:44;28.50;99.90
22167;DHT22;11249;52.468;13.776;2023-07-09T10:19:24;28.80;99.90
22167;DHT22;11249;52.468;13.776;2023-07-09T10:22:07;28.80;99.90
22167;DHT22;11249;52.468;13.776;2023-07-09T10:24:57;28.80;99.90
22167;DHT22;11249;52.468;13.776;2023-07-09T10:30:38;28.80;99.90
22167;DHT22;11249;52.468;13.776;2023-07-09T10:33:10;28.90;99.90
22167;DHT22;11249;52.468;13.776;2023-07-09T10:35:53;29.10;99.90
22167;DHT22;11249;52.468;13.776;2023-07-09T10:38:50;29.30;99.90
22167;DHT22;11249;52.468;13.776;2023-07-09T10:41:13;29.50;99.90
22167;DHT22;11249;52.468;13.776;2023-07-09T10:43:57;29.80;99.90
22167;DHT22;11249;52.468;13.776;2023-07-09T10:46:28;30.10;99.90
22167;DHT22;11249;52.468;13.776;2023-07-09T10:48:58;30.20;99.90
22167;DHT22;11249;52.468;13.776;2023-07-09T10:51:29;30.40;99.90
22167;DHT22;11249;52.468;13.776;2023-07-09T10:56:39;30.80;99.90
22167;DHT22;11249;52.468;13.776;2023-07-09T10:59:25;31.00;99.90
22167;DHT22;11249;52.468;13.776;2023-07-09T11:02:06;31.10;99.90
22167;DHT22;11249;52.468;13.776;2023-07-09T11:04:43;31.30;99.90
22167;DHT22;11249;52.468;13.776;2023-07-09T11:07:14;31.40;99.90
22167;DHT22;11249;52.468;13.776;2023-07-09T11:09:43;31.70;99.90
22167;DHT22;11249;52.468;13.776;2023-07-09T11:12:34;31.90;99.80
22167;DHT22;11249;52.468;13.776;2023-07-09T11:15:25;31.80;98.40
22167;DHT22;11249;52.468;13.776;2023-07-09T11:17:52;32.00;99.10
22167;DHT22;11249;52.468;13.776;2023-07-09T11:20:40;32.40;99.30
22167;DHT22;11249;52.468;13.776;2023-07-09T11:23:24;32.50;97.40
22167;DHT22;11249;52.468;13.776;2023-07-09T11:26:11;32.70;99.00
22167;DHT22;11249;52.468;13.776;2023-07-09T11:28:41;33.10;98.10
22167;DHT22;11249;52.468;13.776;2023-07-09T11:31:21;33.20;96.70
22167;DHT22;11249;52.468;13.776;2023-07-09T11:34:21;33.40;97.50
22167;DHT22;11249;52.468;13.776;2023-07-09T11:36:51;33.50;95.10
22167;DHT22;11249;52.468;13.776;2023-07-09T11:42:04;33.70;94.30
22167;DHT22;11249;52.468;13.776;2023-07-09T11:44:49;33.90;95.20
22167;DHT22;11249;52.468;13.776;2023-07-09T11:47:25;34.00;95.40
22167;DHT22;11249;52.468;13.776;2023-07-09T11:50:07;34.50;93.70
22167;DHT22;11249;52.468;13.776;2023-07-09T11:52:45;34.20;92.90
22167;DHT22;11249;52.468;13.776;2023-07-09T11:55:44;34.60;93.70
22167;DHT22;11249;52.468;13.776;2023-07-09T11:58:15;34.80;93.80
22167;DHT22;11249;52.468;13.776;2023-07-09T12:00:54;35.00;93.10
22167;DHT22;11249;52.468;13.776;2023-07-09T12:03:27;34.80;90.80
22167;DHT22;11249;52.468;13.776;2023-07-09T12:05:57;34.70;92.30
22167;DHT22;11249;52.468;13.776;2023-07-09T12:08:44;35.20;93.60
22167;DHT22;11249;52.468;13.776;2023-07-09T12:11:30;35.40;91.10
22167;DHT22;11249;52.468;13.776;2023-07-09T12:14:08;35.40;90.10
22167;DHT22;11249;52.468;13.776;2023-07-09T12:16:39;35.70;91.20
22167;DHT22;11249;52.468;13.776;2023-07-09T12:19:07;36.00;90.00
22167;DHT22;11249;52.468;13.776;2023-07-09T12:21:38;36.00;89.50
22167;DHT22;11249;52.468;13.776;2023-07-09T12:24:28;36.40;89.80
22167;DHT22;11249;52.468;13.776;2023-07-09T12:27:00;37.00;90.00
22167;DHT22;11249;52.468;13.776;2023-07-09T12:29:29;37.30;87.80
22167;DHT22;11249;52.468;13.776;2023-07-09T12:31:57;37.30;83.80
22167;DHT22;11249;52.468;13.776;2023-07-09T12:34:24;37.20;83.90
22167;DHT22;11249;52.468;13.776;2023-07-09T12:36:52;37.30;82.50
22167;DHT22;11249;52.468;13.776;2023-07-09T12:39:28;37.00;83.00
22167;DHT22;11249;52.468;13.776;2023-07-09T12:41:58;36.60;81.60
22167;DHT22;11249;52.468;13.776;2023-07-09T12:44:26;37.00;84.80
22167;DHT22;11249;52.468;13.776;2023-07-09T12:46:54;37.10;79.90
22167;DHT22;11249;52.468;13.776;2023-07-09T12:49:29;36.90;79.90
22167;DHT22;11249;52.468;13.776;2023-07-09T12:52:00;37.00;82.10
22167;DHT22;11249;52.468;13.776;2023-07-09T12:54:30;37.10;83.50
22167;DHT22;11249;52.468;13.776;2023-07-09T12:56:59;37.10;80.10
22167;DHT22;11249;52.468;13.776;2023-07-09T12:59:39;37.50;79.50
22167;DHT22;11249;52.468;13.776;2023-07-09T13:02:22;37.20;78.20
22167;DHT22;11249;52.468;13.776;2023-07-09T13:05:02;37.10;81.80
22167;DHT22;11249;52.468;13.776;2023-07-09T13:07:34;37.00;78.50
22167;DHT22;11249;52.468;13.776;2023-07-09T13:10:25;37.30;80.60
22167;DHT22;11249;52.468;13.776;2023-07-09T13:13:04;37.50;76.30
22167;DHT22;11249;52.468;13.776;2023-07-09T13:15:38;37.00;75.00
22167;DHT22;11249;52.468;13.776;2023-07-09T13:18:08;36.60;75.60
22167;DHT22;11249;52.468;13.776;2023-07-09T13:20:39;36.50;75.00
22167;DHT22;11249;52.468;13.776;2023-07-09T13:25:40;37.80;90.00
22167;DHT22;11249;52.468;13.776;2023-07-09T13:28:25;38.70;89.80
22167;DHT22;11249;52.468;13.776;2023-07-09T13:30:59;39.30;86.60
22167;DHT22;11249;52.468;13.776;2023-07-09T13:33:27;39.70;81.80
22167;DHT22;11249;52.468;13.776;2023-07-09T13:35:54;39.60;79.90
22167;DHT22;11249;52.468;13.776;2023-07-09T13:38:22;39.40;80.80
22167;DHT22;11249;52.468;13.776;2023-07-09T13:40:53;39.10;79.10
22167;DHT22;11249;52.468;13.776;2023-07-09T13:43:28;39.00;81.20
22167;DHT22;11249;52.468;13.776;2023-07-09T13:45:55;39.20;77.20
22167;DHT22;11249;52.468;13.776;2023-07-09T13:48:24;39.50;82.10
22167;DHT22;11249;52.468;13.776;2023-07-09T13:50:53;39.80;79.70
22167;DHT22;11249;52.468;13.776;2023-07-09T13:53:27;39.50;77.00
22167;DHT22;11249;52.468;13.776;2023-07-09T13:55:55;39.00;74.60
22167;DHT22;11249;52.468;13.776;2023-07-09T13:58:24;39.30;79.00
22167;DHT22;11249;52.468;13.776;2023-07-09T14:00:57;39.60;79.00
22167;DHT22;11249;52.468;13.776;2023-07-09T14:03:28;39.90;79.50
22167;DHT22;11249;52.468;13.776;2023-07-09T14:05:56;39.60;72.50
22167;DHT22;11249;52.468;13.776;2023-07-09T14:08:23;39.40;70.70
22167;DHT22;11249;52.468;13.776;2023-07-09T14:10:50;38.30;72.50
22167;DHT22;11249;52.468;13.776;2023-07-09T14:13:20;38.70;72.60
22167;DHT22;11249;52.468;13.776;2023-07-09T14:15:47;39.10;75.40
22167;DHT22;11249;52.468;13.776;2023-07-09T14:18:17;39.50;73.20
22167;DHT22;11249;52.468;13.776;2023-07-09T14:20:44;39.50;69.30
22167;DHT22;11249;52.468;13.776;2023-07-09T14:23:16;38.60;67.70
22167;DHT22;11249;52.468;13.776;2023-07-09T14:25:44;38.70;69.60
22167;DHT22;11249;52.468;13.776;2023-07-09T14:28:17;38.80;69.10
22167;DHT22;11249;52.468;13.776;2023-07-09T14:30:45;38.90;67.60
22167;DHT22;11249;52.468;13.776;2023-07-09T14:33:17;38.90;68.80
22167;DHT22;11249;52.468;13.776;2023-07-09T14:35:44;39.00;68.10
22167;DHT22;11249;52.468;13.776;2023-07-09T14:38:22;39.20;67.60
22167;DHT22;11249;52.468;13.776;2023-07-09T14:40:52;39.30;66.30
22167;DHT22;11249;52.468;13.776;2023-07-09T14:43:19;39.10;66.40
22167;DHT22;11249;52.468;13.776;2023-07-09T14:45:48;39.00;66.60
22167;DHT22;11249;52.468;13.776;2023-07-09T14:48:18;39.20;65.40
22167;DHT22;11249;52.468;13.776;2023-07-09T14:50:47;39.20;67.40
22167;DHT22;11249;52.468;13.776;2023-07-09T14:53:25;38.90;65.80
22167;DHT22;11249;52.468;13.776;2023-07-09T14:55:53;39.00;64.40
22167;DHT22;11249;52.468;13.776;2023-07-09T14:58:22;39.40;67.10
22167;DHT22;11249;52.468;13.776;2023-07-09T15:00:50;39.80;66.50
22167;DHT22;11249;52.468;13.776;2023-07-09T15:03:23;40.00;64.90
22167;DHT22;11249;52.468;13.776;2023-07-09T15:05:51;39.80;63.10
22167;DHT22;11249;52.468;13.776;2023-07-09T15:08:20;39.70;64.00
22167;DHT22;11249;52.468;13.776;2023-07-09T15:10:50;39.50;64.20
22167;DHT22;11249;52.468;13.776;2023-07-09T15:13:29;39.10;65.70
22167;DHT22;11249;52.468;13.776;2023-07-09T15:16:02;38.90;66.00
22167;DHT22;11249;52.468;13.776;2023-07-09T15:18:29;38.70;66.00
22167;DHT22;11249;52.468;13.776;2023-07-09T15:20:58;38.70;64.50
22167;DHT22;11249;52.468;13.776;2023-07-09T15:23:25;38.50;64.80
22167;DHT22;11249;52.468;13.776;2023-07-09T15:25:53;38.10;64.90
22167;DHT22;11249;52.468;13.776;2023-07-09T15:28:20;37.70;64.60
22167;DHT22;11249;52.468;13.776;2023-07-09T15:30:46;37.80;66.20
22167;DHT22;11249;52.468;13.776;2023-07-09T15:33:18;38.30;66.90
22167;DHT22;11249;52.468;13.776;2023-07-09T15:35:46;37.80;66.30
22167;DHT22;11249;52.468;13.776;2023-07-09T15:38:29;37.80;66.20
22167;DHT22;11249;52.468;13.776;2023-07-09T15:40:57;37.80;65.70
22167;DHT22;11249;52.468;13.776;2023-07-09T15:43:24;37.40;65.30
22167;DHT22;11249;52.468;13.776;2023-07-09T15:45:52;37.20;66.00
22167;DHT22;11249;52.468;13.776;2023-07-09T15:48:34;37.10;66.70
22167;DHT22;11249;52.468;13.776;2023-07-09T15:51:03;37.20;69.00
22167;DHT22;11249;52.468;13.776;2023-07-09T15:53:31;36.80;67.50
22167;DHT22;11249;52.468;13.776;2023-07-09T15:56:00;37.10;66.90
22167;DHT22;11249;52.468;13.776;2023-07-09T15:58:32;37.10;68.80